createdAt,value
2018-01-10T00:00:00.253Z,38.56
2018-01-10T00:01:09.459Z,38.56
2018-01-10T00:02:18.700Z,38.76
2018-01-10T00:03:27.916Z,38.56
2018-01-10T00:04:36.881Z,38.66
2018-01-10T00:05:46.358Z,38.47
2018-01-10T00:06:55.848Z,38.47
2018-01-10T00:08:05.307Z,38.66
2018-01-10T00:09:13.980Z,38.56
2018-01-10T00:10:23.180Z,38.47
2018-01-10T00:11:32.403Z,38.56
2018-01-10T00:12:41.079Z,38.56
2018-01-10T00:13:50.556Z,38.66
2018-01-10T00:14:59.771Z,38.66
2018-01-10T00:16:09.243Z,38.56
2018-01-10T00:17:18.723Z,38.56
2018-01-10T00:18:28.188Z,38.47
2018-01-10T00:19:37.120Z,38.47
2018-01-10T00:20:46.076Z,38.66
2018-01-10T00:21:55.272Z,38.76
2018-01-10T00:23:04.471Z,38.56
2018-01-10T00:24:13.701Z,38.56
2018-01-10T00:25:22.652Z,38.56
2018-01-10T00:26:31.878Z,38.76
2018-01-10T00:27:41.604Z,38.85
2018-01-10T00:28:50.537Z,38.84
2018-01-10T00:29:59.750Z,38.85
2018-01-10T00:31:08.951Z,38.85
2018-01-10T00:32:18.174Z,38.85
2018-01-10T00:33:27.669Z,38.66
2018-01-10T00:34:37.122Z,38.85
2018-01-10T00:35:46.323Z,38.76
2018-01-10T00:36:55.268Z,38.66
2018-01-10T00:38:04.479Z,38.85
2018-01-10T00:39:13.690Z,38.66
2018-01-10T00:40:23.173Z,38.95
2018-01-10T00:41:32.112Z,38.85
2018-01-10T00:42:41.589Z,38.66
2018-01-10T00:43:50.529Z,38.66
2018-01-10T00:44:59.756Z,38.95
2018-01-10T00:46:09.237Z,38.76
2018-01-10T00:47:18.437Z,38.95
2018-01-10T00:48:27.131Z,38.74
2018-01-10T00:49:36.095Z,38.76
2018-01-10T00:50:45.045Z,38.85
2018-01-10T00:51:54.276Z,38.66
2018-01-10T00:53:03.482Z,38.66
2018-01-10T00:54:12.163Z,38.76
2018-01-10T00:55:21.368Z,38.95
2018-01-10T00:56:30.575Z,38.76
2018-01-10T00:57:39.773Z,38.74
2018-01-10T00:58:48.718Z,38.85
2018-01-10T00:59:57.397Z,38.85
2018-01-10T01:01:06.339Z,38.76
2018-01-10T01:02:15.532Z,38.95
2018-01-10T01:03:24.748Z,38.85
2018-01-10T01:04:33.441Z,38.93
2018-01-10T01:05:42.671Z,38.84
2018-01-10T01:06:51.696Z,38.85
2018-01-10T01:08:00.905Z,38.84
2018-01-10T01:09:09.586Z,38.95
2018-01-10T01:10:19.040Z,39.14
2018-01-10T01:11:28.492Z,38.85
2018-01-10T01:12:38.238Z,38.85
2018-01-10T01:13:47.176Z,38.95
2018-01-10T01:14:56.912Z,38.85
2018-01-10T01:16:05.591Z,39.03
2018-01-10T01:17:14.280Z,39.04
2018-01-10T01:18:23.771Z,39.14
2018-01-10T01:19:33.241Z,38.95
2018-01-10T01:20:42.180Z,39.12
2018-01-10T01:21:51.390Z,38.95
2018-01-10T01:23:00.326Z,39.24
2018-01-10T01:24:09.781Z,39.33
2018-01-10T01:25:19.248Z,39.14
2018-01-10T01:26:28.709Z,39.14
2018-01-10T01:27:37.904Z,39.12
2018-01-10T01:28:47.369Z,38.95
2018-01-10T01:29:56.305Z,39.14
2018-01-10T01:31:04.996Z,39.14
2018-01-10T01:32:14.455Z,39.04
2018-01-10T01:33:23.926Z,39.14
2018-01-10T01:34:33.181Z,39.14
2018-01-10T01:35:41.870Z,38.95
2018-01-10T01:36:51.618Z,39.24
2018-01-10T01:38:00.308Z,39.33
2018-01-10T01:39:09.775Z,39.14
2018-01-10T01:40:18.975Z,39.24
2018-01-10T01:41:27.930Z,38.95
2018-01-10T01:42:37.829Z,39.14
2018-01-10T01:43:47.031Z,39.14
2018-01-10T01:44:55.975Z,39.14
2018-01-10T01:46:04.912Z,39.14
2018-01-10T01:47:14.648Z,39.24
2018-01-10T01:48:23.345Z,39.22
2018-01-10T01:49:32.554Z,39.14
2018-01-10T01:50:41.492Z,39.24
2018-01-10T01:51:50.694Z,39.04
2018-01-10T01:52:59.375Z,39.24
2018-01-10T01:54:08.582Z,39.22
2018-01-10T01:55:17.800Z,38.95
2018-01-10T01:56:26.754Z,39.14
2018-01-10T01:57:35.698Z,38.93
2018-01-10T01:58:44.634Z,39.12
2018-01-10T01:59:53.314Z,38.95
2018-01-10T02:01:02.537Z,39.04
2018-01-10T02:02:11.770Z,39.12
2018-01-10T02:03:21.027Z,39.12
2018-01-10T02:04:29.962Z,39.12
2018-01-10T02:05:38.650Z,39.04
2018-01-10T02:06:47.603Z,39.31
2018-01-10T02:07:57.082Z,39.33
2018-01-10T02:09:06.032Z,39.14
2018-01-10T02:10:15.242Z,39.22
2018-01-10T02:11:25.245Z,39.31
2018-01-10T02:12:34.204Z,39.31
2018-01-10T02:13:43.153Z,39.31
2018-01-10T02:14:52.110Z,39.31
2018-01-10T02:16:01.340Z,39.31
2018-01-10T02:17:10.288Z,39.31
2018-01-10T02:18:20.024Z,39.22
2018-01-10T02:19:29.235Z,39.31
2018-01-10T02:20:37.912Z,39.31
2018-01-10T02:21:46.849Z,39.31
2018-01-10T02:22:56.057Z,39.33
2018-01-10T02:24:04.991Z,39.24
2018-01-10T02:25:14.188Z,39.31
2018-01-10T02:26:23.157Z,39.31
2018-01-10T02:27:32.104Z,39.31
2018-01-10T02:28:41.093Z,39.22
2018-01-10T02:29:49.751Z,39.31
2018-01-10T02:30:58.990Z,39.33
2018-01-10T02:32:08.205Z,39.31
2018-01-10T02:33:16.873Z,39.33
2018-01-10T02:34:25.818Z,39.33
2018-01-10T02:35:34.757Z,39.31
2018-01-10T02:36:43.704Z,39.31
2018-01-10T02:37:52.942Z,39.22
2018-01-10T02:39:01.640Z,39.33
2018-01-10T02:40:11.140Z,39.33
2018-01-10T02:41:20.667Z,39.22
2018-01-10T02:42:29.868Z,39.22
2018-01-10T02:43:39.060Z,39.22
2018-01-10T02:44:48.027Z,39.31
2018-01-10T02:45:57.491Z,39.31
2018-01-10T02:47:06.697Z,39.22
2018-01-10T02:48:15.411Z,39.31
2018-01-10T02:49:24.609Z,39.31
2018-01-10T02:50:33.575Z,39.31
2018-01-10T02:51:42.267Z,39.22
2018-01-10T02:52:51.480Z,39.31
2018-01-10T02:54:00.961Z,39.31
2018-01-10T02:55:10.684Z,39.31
2018-01-10T02:56:20.136Z,39.22
2018-01-10T02:57:29.364Z,39.22
2018-01-10T02:58:38.351Z,39.31
2018-01-10T02:59:47.560Z,39.33
2018-01-10T03:00:56.758Z,39.31
2018-01-10T03:02:06.005Z,39.31
2018-01-10T03:03:15.205Z,39.31
2018-01-10T03:04:24.417Z,39.31
2018-01-10T03:05:33.358Z,39.31
2018-01-10T03:06:42.291Z,39.22
2018-01-10T03:07:51.244Z,39.31
2018-01-10T03:09:00.710Z,39.33
2018-01-10T03:10:09.924Z,39.31
2018-01-10T03:11:19.379Z,39.31
2018-01-10T03:12:28.849Z,39.24
2018-01-10T03:13:37.782Z,39.31
2018-01-10T03:14:46.462Z,39.31
2018-01-10T03:15:55.398Z,39.22
2018-01-10T03:17:04.353Z,39.31
2018-01-10T03:18:13.555Z,39.31
2018-01-10T03:19:22.491Z,39.31
2018-01-10T03:20:31.705Z,39.22
2018-01-10T03:21:40.381Z,39.31
2018-01-10T03:22:49.595Z,39.22
2018-01-10T03:23:58.533Z,39.31
2018-01-10T03:25:07.214Z,39.31
2018-01-10T03:26:16.675Z,39.31
2018-01-10T03:27:26.148Z,39.31
2018-01-10T03:28:35.099Z,39.31
2018-01-10T03:29:44.035Z,39.31
2018-01-10T03:30:53.490Z,39.24
2018-01-10T03:32:03.139Z,39.31
2018-01-10T03:33:12.372Z,39.31
2018-01-10T03:34:21.579Z,39.33
2018-01-10T03:35:30.272Z,39.31
2018-01-10T03:36:39.479Z,39.22
2018-01-10T03:37:48.965Z,39.31
2018-01-10T03:38:57.906Z,39.31
2018-01-10T03:40:07.923Z,39.22
2018-01-10T03:41:17.124Z,39.31
2018-01-10T03:42:25.803Z,39.22
2018-01-10T03:43:35.006Z,39.24
2018-01-10T03:44:44.300Z,39.24
2018-01-10T03:45:52.974Z,39.33
2018-01-10T03:47:01.926Z,39.33
2018-01-10T03:48:11.112Z,39.31
2018-01-10T03:49:20.578Z,39.31
2018-01-10T03:50:29.801Z,39.31
2018-01-10T03:51:38.738Z,39.33
2018-01-10T03:52:47.943Z,39.31
2018-01-10T03:53:56.895Z,39.33
2018-01-10T03:55:05.567Z,39.31
2018-01-10T03:56:14.763Z,39.33
2018-01-10T03:57:24.230Z,39.31
2018-01-10T03:58:33.171Z,39.22
2018-01-10T03:59:42.672Z,39.31
2018-01-10T04:00:52.129Z,39.33
2018-01-10T04:02:00.809Z,39.31
2018-01-10T04:03:10.329Z,39.31
2018-01-10T04:04:19.272Z,39.31
2018-01-10T04:05:28.215Z,39.31
2018-01-10T04:06:36.894Z,39.31
2018-01-10T04:07:45.833Z,39.31
2018-01-10T04:08:55.292Z,39.31
2018-01-10T04:10:04.505Z,39.33
2018-01-10T04:11:13.724Z,39.31
2018-01-10T04:12:22.680Z,39.31
2018-01-10T04:13:31.631Z,39.22
2018-01-10T04:14:40.325Z,39.22
2018-01-10T04:15:49.782Z,39.24
2018-01-10T04:16:58.464Z,39.24
2018-01-10T04:18:07.149Z,39.33
2018-01-10T04:19:16.883Z,39.22
2018-01-10T04:20:25.840Z,39.31
2018-01-10T04:21:34.519Z,39.24
2018-01-10T04:22:44.003Z,39.33
2018-01-10T04:23:53.358Z,39.14
2018-01-10T04:25:02.295Z,39.31
2018-01-10T04:26:10.980Z,39.22
2018-01-10T04:27:19.928Z,39.33
2018-01-10T04:28:28.865Z,39.22
2018-01-10T04:29:38.068Z,39.31
2018-01-10T04:30:47.006Z,39.33
2018-01-10T04:31:55.949Z,39.24
2018-01-10T04:33:04.889Z,39.12
2018-01-10T04:34:13.576Z,39.12
2018-01-10T04:35:22.537Z,39.22
2018-01-10T04:36:31.990Z,39.14
2018-01-10T04:37:41.184Z,39.22
2018-01-10T04:38:49.855Z,39.22
2018-01-10T04:39:59.346Z,39.24
2018-01-10T04:41:08.293Z,39.41
2018-01-10T04:42:16.973Z,39.22
2018-01-10T04:43:26.182Z,39.31
2018-01-10T04:44:34.853Z,39.31
2018-01-10T04:45:43.804Z,39.31
2018-01-10T04:46:53.267Z,39.22
2018-01-10T04:48:02.760Z,39.31
2018-01-10T04:49:11.704Z,39.22
2018-01-10T04:50:20.656Z,39.22
2018-01-10T04:51:29.874Z,39.22
2018-01-10T04:52:39.091Z,39.12
2018-01-10T04:53:48.357Z,39.14
2018-01-10T04:54:57.552Z,39.12
2018-01-10T04:56:06.771Z,39.03
2018-01-10T04:57:15.730Z,39.24
2018-01-10T04:58:24.672Z,39.12
2018-01-10T04:59:33.614Z,39.03
2018-01-10T05:00:42.803Z,39.22
2018-01-10T05:01:51.482Z,39.14
2018-01-10T05:03:00.412Z,39.12
2018-01-10T05:04:09.363Z,39.12
2018-01-10T05:05:18.039Z,39.22
2018-01-10T05:06:27.236Z,39.12
2018-01-10T05:07:36.450Z,39.12
2018-01-10T05:08:45.139Z,39.14
2018-01-10T05:09:54.621Z,39.12
2018-01-10T05:11:03.322Z,39.12
2018-01-10T05:12:11.998Z,39.12
2018-01-10T05:13:21.188Z,39.03
2018-01-10T05:14:30.142Z,39.14
2018-01-10T05:15:39.324Z,39.12
2018-01-10T05:16:49.053Z,39.14
2018-01-10T05:17:58.244Z,39.22
2018-01-10T05:19:07.174Z,39.12
2018-01-10T05:20:16.110Z,39.24
2018-01-10T05:21:25.063Z,39.22
2018-01-10T05:22:34.023Z,39.12
2018-01-10T05:23:42.957Z,39.14
2018-01-10T05:24:51.889Z,39.12
2018-01-10T05:26:01.350Z,39.03
2018-01-10T05:27:10.551Z,39.14
2018-01-10T05:28:19.520Z,39.14
2018-01-10T05:29:28.716Z,39.04
2018-01-10T05:30:37.911Z,39.04
2018-01-10T05:31:47.107Z,39.14
2018-01-10T05:32:56.042Z,39.12
2018-01-10T05:34:06.012Z,39.03
2018-01-10T05:35:15.215Z,39.22
2018-01-10T05:36:24.211Z,39.22
2018-01-10T05:37:32.880Z,39.24
2018-01-10T05:38:42.078Z,38.85
2018-01-10T05:39:51.019Z,38.85
2018-01-10T05:41:00.482Z,38.66
2018-01-10T05:42:09.159Z,38.56
2018-01-10T05:43:18.351Z,38.47
2018-01-10T05:44:27.547Z,38.37
2018-01-10T05:45:36.513Z,38.18
2018-01-10T05:46:45.705Z,38.29
2018-01-10T05:47:54.639Z,38.28
2018-01-10T05:49:03.581Z,38.1
2018-01-10T05:50:12.517Z,37.72
2018-01-10T05:51:21.725Z,37.81
2018-01-10T05:52:31.182Z,37.62
2018-01-10T05:53:40.639Z,37.62
2018-01-10T05:54:49.318Z,37.62
2018-01-10T05:55:58.520Z,37.62
2018-01-10T05:57:07.732Z,37.64
2018-01-10T05:58:16.674Z,37.64
2018-01-10T05:59:25.624Z,37.54
2018-01-10T06:00:34.831Z,37.54
2018-01-10T06:01:43.815Z,37.35
2018-01-10T06:02:52.764Z,37.35
2018-01-10T06:04:01.704Z,37.26
2018-01-10T06:05:11.429Z,37.26
2018-01-10T06:06:20.354Z,37.16
2018-01-10T06:07:29.547Z,37.16
2018-01-10T06:08:38.484Z,36.99
2018-01-10T06:09:47.697Z,37.08
2018-01-10T06:10:56.655Z,37.18
2018-01-10T06:12:05.869Z,36.69
2018-01-10T06:13:15.585Z,36.99
2018-01-10T06:14:24.519Z,36.99
2018-01-10T06:15:33.712Z,36.69
2018-01-10T06:16:49.719Z,36.6
2018-01-10T06:17:58.658Z,36.61
2018-01-10T06:19:07.856Z,36.71
2018-01-10T06:20:17.102Z,36.81
2018-01-10T06:21:26.283Z,36.61
2018-01-10T06:22:35.735Z,36.71
2018-01-10T06:23:44.694Z,36.61
2018-01-10T06:24:53.904Z,36.61
2018-01-10T06:26:02.834Z,36.52
2018-01-10T06:27:12.362Z,36.33
2018-01-10T06:28:21.560Z,36.33
2018-01-10T06:29:31.021Z,36.23
2018-01-10T06:30:39.960Z,36.43
2018-01-10T06:31:49.171Z,36.35
2018-01-10T06:32:58.111Z,36.13
2018-01-10T06:34:07.319Z,36.35
2018-01-10T06:35:16.596Z,36.25
2018-01-10T06:36:25.808Z,36.15
2018-01-10T06:37:34.478Z,35.86
2018-01-10T06:38:43.688Z,35.96
2018-01-10T06:39:52.895Z,35.67
2018-01-10T06:41:02.088Z,35.77
2018-01-10T06:42:11.299Z,35.67
2018-01-10T06:43:20.239Z,35.77
2018-01-10T06:44:29.176Z,35.88
2018-01-10T06:45:38.390Z,35.78
2018-01-10T06:46:48.127Z,35.69
2018-01-10T06:47:57.059Z,35.78
2018-01-10T06:49:05.994Z,35.69
2018-01-10T06:50:15.206Z,35.69
2018-01-10T06:51:24.157Z,35.69
2018-01-10T06:52:33.114Z,35.5
2018-01-10T06:53:42.052Z,35.4
2018-01-10T06:54:51.524Z,35.52
2018-01-10T06:56:00.718Z,35.5
2018-01-10T06:57:09.918Z,35.32
2018-01-10T06:58:18.880Z,35.42
2018-01-10T06:59:27.827Z,35.42
2018-01-10T07:00:36.773Z,35.52
2018-01-10T07:01:45.968Z,35.52
2018-01-10T07:02:54.643Z,35.52
2018-01-10T07:04:04.098Z,35.42
2018-01-10T07:05:13.316Z,35.42
2018-01-10T07:06:22.253Z,35.61
2018-01-10T07:07:31.495Z,35.9
2018-01-10T07:08:41.236Z,35.71
2018-01-10T07:09:50.432Z,35.8
2018-01-10T07:10:59.663Z,35.61
2018-01-10T07:12:08.346Z,35.8
2018-01-10T07:13:17.849Z,36.09
2018-01-10T07:14:27.038Z,35.9
2018-01-10T07:15:36.257Z,35.8
2018-01-10T07:16:45.472Z,35.9
2018-01-10T07:17:54.937Z,36.29
2018-01-10T07:19:04.403Z,36.17
2018-01-10T07:20:13.353Z,36.27
2018-01-10T07:21:22.024Z,36.36
2018-01-10T07:22:30.970Z,36.46
2018-01-10T07:23:39.905Z,36.46
2018-01-10T07:24:49.107Z,36.65
2018-01-10T07:25:58.035Z,36.75
2018-01-10T07:27:07.003Z,36.65
2018-01-10T07:28:16.502Z,36.55
2018-01-10T07:29:26.224Z,36.75
2018-01-10T07:30:34.908Z,37.04
2018-01-10T07:31:43.860Z,36.94
2018-01-10T07:32:52.535Z,36.85
2018-01-10T07:34:02.051Z,37.12
2018-01-10T07:35:10.994Z,37.02
2018-01-10T07:36:20.203Z,37.21
2018-01-10T07:37:29.691Z,37.21
2018-01-10T07:38:38.926Z,37.31
2018-01-10T07:39:48.141Z,37.5
2018-01-10T07:40:56.906Z,37.5
2018-01-10T07:42:06.113Z,37.6
2018-01-10T07:43:14.786Z,37.7
2018-01-10T07:44:23.496Z,37.79
2018-01-10T07:45:32.719Z,37.68
2018-01-10T07:46:41.675Z,37.7
2018-01-10T07:47:50.383Z,37.6
2018-01-10T07:48:59.850Z,37.96
2018-01-10T07:50:09.755Z,37.77
2018-01-10T07:51:18.977Z,37.68
2018-01-10T07:52:27.929Z,37.68
2018-01-10T07:53:37.665Z,37.77
2018-01-10T07:54:46.604Z,37.96
2018-01-10T07:55:55.818Z,37.96
2018-01-10T07:57:05.035Z,38.26
2018-01-10T07:58:14.244Z,38.06
2018-01-10T07:59:23.438Z,38.45
2018-01-10T08:00:32.640Z,38.26
2018-01-10T08:01:41.878Z,38.35
2018-01-10T08:02:51.088Z,38.26
2018-01-10T08:04:00.361Z,38.26
2018-01-10T08:05:09.050Z,38.16
2018-01-10T08:06:18.252Z,38.35
2018-01-10T08:07:27.457Z,38.14
2018-01-10T08:08:36.674Z,38.33
2018-01-10T08:09:46.146Z,38.16
2018-01-10T08:10:55.352Z,38.33
2018-01-10T08:12:04.591Z,38.33
2018-01-10T08:13:13.274Z,38.43
2018-01-10T08:14:22.741Z,38.53
2018-01-10T08:15:31.709Z,38.53
2018-01-10T08:16:40.684Z,38.72
2018-01-10T08:17:49.652Z,38.62
2018-01-10T08:18:58.858Z,38.53
2018-01-10T08:20:08.066Z,38.81
2018-01-10T08:21:17.015Z,38.62
2018-01-10T08:22:26.486Z,38.72
2018-01-10T08:23:35.688Z,38.91
2018-01-10T08:24:45.180Z,38.91
2018-01-10T08:25:54.403Z,38.81
2018-01-10T08:27:03.352Z,39.11
2018-01-10T08:28:12.657Z,39.2
2018-01-10T08:29:22.123Z,39.11
2018-01-10T08:30:31.328Z,39.29
2018-01-10T08:31:40.530Z,39.39
2018-01-10T08:32:50.054Z,39.39
2018-01-10T08:33:59.518Z,39.39
2018-01-10T08:35:09.310Z,39.2
2018-01-10T08:36:18.256Z,39.29
2018-01-10T08:37:27.741Z,39.39
2018-01-10T08:38:36.698Z,39.11
2018-01-10T08:39:46.175Z,38.81
2018-01-10T08:40:55.385Z,38.99
2018-01-10T08:42:04.375Z,39.09
2018-01-10T08:43:13.586Z,39.09
2018-01-10T08:44:22.274Z,39.18
2018-01-10T08:45:31.513Z,39.18
2018-01-10T08:46:40.706Z,39.18
2018-01-10T08:47:50.429Z,39.18
2018-01-10T08:48:59.645Z,38.89
2018-01-10T08:50:09.394Z,38.99
2018-01-10T08:51:18.592Z,38.89
2018-01-10T08:52:27.811Z,38.99
2018-01-10T08:53:37.294Z,38.99
2018-01-10T08:54:46.498Z,38.99
2018-01-10T08:55:55.229Z,38.89
2018-01-10T08:57:04.188Z,38.79
2018-01-10T08:58:13.391Z,38.89
2018-01-10T08:59:22.595Z,38.99
2018-01-10T09:00:31.806Z,38.89
2018-01-10T09:01:40.752Z,38.79
2018-01-10T09:02:50.220Z,38.79
2018-01-10T09:03:58.897Z,38.79
2018-01-10T09:05:08.108Z,38.99
2018-01-10T09:06:17.594Z,38.99
2018-01-10T09:07:26.630Z,38.79
2018-01-10T09:08:35.835Z,38.99
2018-01-10T09:09:45.052Z,38.99
2018-01-10T09:10:54.029Z,38.79
2018-01-10T09:12:02.985Z,38.79
2018-01-10T09:13:11.931Z,38.79
2018-01-10T09:14:21.128Z,38.89
2018-01-10T09:15:30.344Z,38.89
2018-01-10T09:16:39.570Z,38.99
2018-01-10T09:17:48.504Z,38.79
2018-01-10T09:18:57.456Z,38.79
2018-01-10T09:20:06.417Z,38.79
2018-01-10T09:21:16.148Z,38.99
2018-01-10T09:22:25.107Z,38.99
2018-01-10T09:23:34.573Z,38.89
2018-01-10T09:24:43.797Z,38.89
2018-01-10T09:25:53.028Z,38.89
2018-01-10T09:27:01.995Z,38.99
2018-01-10T09:28:10.682Z,39.09
2018-01-10T09:29:19.898Z,39.09
2018-01-10T09:30:28.888Z,39.18
2018-01-10T09:31:37.836Z,39.28
2018-01-10T09:32:46.532Z,39.09
2018-01-10T09:33:55.999Z,39.28
2018-01-10T09:35:04.685Z,39.18
2018-01-10T09:36:13.636Z,39.28
2018-01-10T09:37:22.338Z,39.28
2018-01-10T09:38:31.827Z,39.37
2018-01-10T09:39:40.760Z,39.37
2018-01-10T09:40:50.234Z,39.37
2018-01-10T09:41:59.456Z,39.37
2018-01-10T09:43:08.669Z,39.28
2018-01-10T09:44:17.626Z,39.37
2018-01-10T09:45:26.577Z,39.28
2018-01-10T09:46:35.788Z,39.28
2018-01-10T09:47:44.732Z,39.28
2018-01-10T09:48:53.427Z,39.28
2018-01-10T09:50:02.623Z,39.37
2018-01-10T09:51:11.826Z,39.37
2018-01-10T09:52:21.299Z,39.28
2018-01-10T09:53:30.507Z,39.37
2018-01-10T09:54:39.997Z,39.28
2018-01-10T09:55:48.960Z,38.99
2018-01-10T09:56:57.641Z,38.89
2018-01-10T09:58:06.609Z,38.89
2018-01-10T09:59:15.818Z,38.89
2018-01-10T10:00:25.041Z,38.91
2018-01-10T10:01:33.982Z,38.81
2018-01-10T10:02:43.211Z,38.79
2018-01-10T10:03:52.419Z,38.62
2018-01-10T10:05:01.642Z,38.62
2018-01-10T10:06:10.863Z,38.72
2018-01-10T10:07:20.344Z,38.53
2018-01-10T10:08:29.569Z,38.53
2018-01-10T10:09:38.772Z,38.62
2018-01-10T10:10:47.969Z,38.72
2018-01-10T10:11:56.671Z,38.53
2018-01-10T10:13:06.154Z,38.62
2018-01-10T10:14:15.128Z,38.43
2018-01-10T10:15:24.338Z,38.33
2018-01-10T10:16:33.546Z,38.43
2018-01-10T10:17:43.006Z,38.33
2018-01-10T10:18:51.962Z,38.62
2018-01-10T10:20:00.668Z,38.53
2018-01-10T10:21:09.640Z,38.04
2018-01-10T10:22:18.581Z,38.04
2018-01-10T10:23:27.794Z,38.14
2018-01-10T10:24:37.011Z,38.33
2018-01-10T10:25:46.228Z,38.24
2018-01-10T10:26:55.707Z,38.14
2018-01-10T10:28:04.929Z,38.14
2018-01-10T10:29:13.896Z,38.43
2018-01-10T10:30:22.580Z,38.62
2018-01-10T10:31:31.530Z,38.33
2018-01-10T10:32:40.746Z,38.43
2018-01-10T10:33:49.957Z,38.43
2018-01-10T10:34:59.182Z,38.43
2018-01-10T10:36:08.140Z,38.43
2018-01-10T10:37:17.340Z,38.43
2018-01-10T10:38:26.299Z,38.43
2018-01-10T10:39:35.245Z,38.53
2018-01-10T10:40:44.704Z,38.43
2018-01-10T10:41:54.174Z,38.43
2018-01-10T10:43:03.126Z,38.43
2018-01-10T10:44:12.333Z,38.24
2018-01-10T10:45:21.809Z,38.62
2018-01-10T10:46:31.030Z,38.72
2018-01-10T10:47:40.243Z,38.53
2018-01-10T10:48:49.718Z,38.62
2018-01-10T10:49:59.191Z,38.62
2018-01-10T10:51:08.652Z,38.62
2018-01-10T10:52:18.144Z,38.62
2018-01-10T10:53:27.343Z,38.53
2018-01-10T10:54:36.552Z,38.53
2018-01-10T10:55:45.761Z,38.72
2018-01-10T10:56:54.709Z,38.53
2018-01-10T10:58:03.916Z,38.62
2018-01-10T10:59:13.118Z,38.62
2018-01-10T11:00:22.060Z,38.72
2018-01-10T11:01:31.273Z,38.53
2018-01-10T11:02:39.958Z,38.81
2018-01-10T11:03:49.162Z,38.62
2018-01-10T11:04:58.368Z,38.81
2018-01-10T11:06:07.590Z,38.81
2018-01-10T11:07:16.820Z,38.72
2018-01-10T11:08:26.284Z,38.62
2018-01-10T11:09:35.231Z,38.51
2018-01-10T11:10:43.909Z,38.81
2018-01-10T11:11:52.900Z,38.89
2018-01-10T11:13:01.597Z,38.7
2018-01-10T11:14:10.274Z,38.81
2018-01-10T11:15:19.486Z,38.89
2018-01-10T11:16:28.962Z,38.89
2018-01-10T11:17:37.915Z,39.18
2018-01-10T11:18:46.867Z,38.89
2018-01-10T11:19:55.822Z,39.18
2018-01-10T11:21:04.763Z,38.99
2018-01-10T11:22:13.447Z,38.89
2018-01-10T11:23:22.923Z,38.89
2018-01-10T11:24:31.612Z,38.99
2018-01-10T11:25:40.552Z,38.99
2018-01-10T11:26:49.507Z,38.89
2018-01-10T11:27:58.726Z,38.99
2018-01-10T11:29:08.216Z,38.99
2018-01-10T11:30:17.426Z,38.99
2018-01-10T11:31:26.649Z,39.28
2018-01-10T11:32:35.854Z,39.28
2018-01-10T11:33:44.797Z,39.18
2018-01-10T11:34:54.005Z,39.37
2018-01-10T11:36:03.288Z,39.18
2018-01-10T11:37:12.223Z,38.99
2018-01-10T11:38:21.168Z,39.18
2018-01-10T11:39:30.369Z,39.18
2018-01-10T11:40:39.315Z,39.37
2018-01-10T11:41:48.336Z,39.18
2018-01-10T11:42:57.023Z,39.18
2018-01-10T11:44:06.225Z,38.99
2018-01-10T11:45:15.432Z,38.99
2018-01-10T11:46:24.629Z,38.89
2018-01-10T11:47:34.374Z,39.18
2018-01-10T11:48:43.836Z,38.89
2018-01-10T11:49:53.055Z,38.89
2018-01-10T11:51:02.018Z,38.79
2018-01-10T11:52:11.220Z,38.89
2018-01-10T11:53:20.171Z,38.7
2018-01-10T11:54:29.112Z,38.79
2018-01-10T11:55:38.576Z,38.89
2018-01-10T11:56:48.064Z,38.89
2018-01-10T11:57:57.529Z,38.99
2018-01-10T11:59:06.464Z,38.99
2018-01-10T12:00:15.662Z,38.79
2018-01-10T12:01:24.858Z,38.6
2018-01-10T12:02:33.553Z,38.7
2018-01-10T12:03:42.494Z,38.7
2018-01-10T12:04:51.701Z,38.6
2018-01-10T12:06:01.162Z,38.51
2018-01-10T12:07:10.411Z,38.6
2018-01-10T12:08:19.106Z,38.51
2018-01-10T12:09:28.579Z,38.6
2018-01-10T12:10:38.054Z,38.51
2018-01-10T12:11:47.265Z,38.51
2018-01-10T12:12:56.735Z,38.51
2018-01-10T12:14:05.944Z,38.43
2018-01-10T12:15:15.149Z,38.41
2018-01-10T12:16:24.352Z,38.6
2018-01-10T12:17:33.558Z,38.51
2018-01-10T12:18:42.511Z,38.43
2018-01-10T12:19:51.726Z,38.6
2018-01-10T12:21:01.723Z,38.53
2018-01-10T12:22:10.930Z,38.41
2018-01-10T12:23:20.397Z,38.53
2018-01-10T12:24:29.612Z,38.62
2018-01-10T12:25:39.097Z,38.43
2018-01-10T12:26:48.047Z,38.6
2018-01-10T12:27:57.250Z,38.6
2018-01-10T12:29:06.191Z,38.53
2018-01-10T12:30:15.406Z,38.62
2018-01-10T12:31:24.934Z,38.62
2018-01-10T12:32:34.159Z,38.53
2018-01-10T12:33:43.933Z,38.6
2018-01-10T12:34:52.635Z,38.53
2018-01-10T12:36:02.422Z,38.53
2018-01-10T12:37:11.115Z,38.51
2018-01-10T12:38:20.323Z,38.51
2018-01-10T12:39:29.284Z,38.62
2018-01-10T12:40:38.501Z,38.62
2018-01-10T12:41:47.435Z,38.51
2018-01-10T12:42:56.670Z,38.53
2018-01-10T12:44:05.859Z,38.53
2018-01-10T12:45:15.071Z,38.33
2018-01-10T12:46:24.283Z,38.72
2018-01-10T12:47:33.221Z,38.62
2018-01-10T12:48:41.911Z,38.53
2018-01-10T12:49:51.124Z,38.62
2018-01-10T12:51:00.069Z,38.51
2018-01-10T12:52:08.746Z,38.51
2018-01-10T12:53:17.978Z,38.53
2018-01-10T12:54:27.194Z,38.41
2018-01-10T12:55:36.151Z,38.51
2018-01-10T12:56:45.098Z,38.6
2018-01-10T12:57:53.778Z,38.7
2018-01-10T12:59:03.006Z,38.53
2018-01-10T13:00:11.702Z,38.51
2018-01-10T13:01:20.644Z,38.53
2018-01-10T13:02:30.107Z,38.53
2018-01-10T13:03:39.311Z,38.51
2018-01-10T13:04:48.572Z,38.62
2018-01-10T13:05:57.809Z,38.43
2018-01-10T13:07:06.501Z,38.43
2018-01-10T13:08:15.172Z,38.53
2018-01-10T13:09:23.869Z,38.53
2018-01-10T13:10:33.069Z,38.53
2018-01-10T13:11:42.269Z,38.53
2018-01-10T13:12:51.742Z,38.72
2018-01-10T13:14:00.941Z,38.53
2018-01-10T13:15:10.411Z,38.43
2018-01-10T13:16:19.388Z,38.51
2018-01-10T13:17:28.381Z,38.53
2018-01-10T13:18:37.612Z,38.53
2018-01-10T13:19:46.563Z,38.43
2018-01-10T13:20:55.542Z,38.41
2018-01-10T13:22:04.495Z,38.53
2018-01-10T13:23:13.699Z,38.53
2018-01-10T13:24:22.695Z,38.43
2018-01-10T13:25:31.720Z,38.62
2018-01-10T13:26:40.940Z,38.43
2018-01-10T13:27:50.477Z,38.43
2018-01-10T13:28:59.431Z,38.43
2018-01-10T13:30:08.676Z,38.43
2018-01-10T13:31:17.648Z,38.41
2018-01-10T13:32:26.946Z,38.7
2018-01-10T13:33:36.250Z,38.53
2018-01-10T13:34:45.471Z,38.6
2018-01-10T13:35:54.438Z,38.51
2018-01-10T13:37:03.403Z,38.51
2018-01-10T13:38:12.660Z,38.41
2018-01-10T13:39:21.849Z,38.41
2018-01-10T13:40:31.095Z,38.7
2018-01-10T13:41:40.066Z,38.51
2018-01-10T13:42:49.035Z,38.41
2018-01-10T13:43:57.733Z,38.51
2018-01-10T13:45:06.941Z,38.89
2018-01-10T13:46:16.678Z,38.6
2018-01-10T13:47:25.621Z,38.41
2018-01-10T13:48:34.825Z,38.6
2018-01-10T13:49:43.771Z,38.7
2018-01-10T13:50:52.450Z,38.6
2018-01-10T13:52:01.645Z,38.79
2018-01-10T13:53:11.380Z,38.7
2018-01-10T13:54:20.603Z,38.6
2018-01-10T13:55:29.814Z,38.89
2018-01-10T13:56:38.771Z,38.6
2018-01-10T13:57:47.452Z,38.89
2018-01-10T13:58:56.924Z,38.89
2018-01-10T14:00:06.410Z,38.51
2018-01-10T14:01:15.630Z,38.89
2018-01-10T14:02:24.885Z,38.7
2018-01-10T14:03:33.830Z,38.79
2018-01-10T14:04:42.508Z,38.79
2018-01-10T14:05:51.997Z,38.79
2018-01-10T14:07:01.204Z,38.79
2018-01-10T14:08:10.408Z,38.89
2018-01-10T14:09:19.364Z,39.09
2018-01-10T14:10:28.059Z,38.99
2018-01-10T14:11:36.740Z,39.18
2018-01-10T14:12:45.945Z,38.99
2018-01-10T14:13:54.896Z,38.99
2018-01-10T14:15:04.136Z,39.09
2018-01-10T14:16:13.075Z,39.09
2018-01-10T14:17:22.280Z,38.99
2018-01-10T14:18:31.783Z,39.28
2018-01-10T14:19:41.253Z,39.37
2018-01-10T14:20:50.481Z,39.28
2018-01-10T14:21:59.704Z,39.37
2018-01-10T14:23:08.920Z,39.37
2018-01-10T14:24:18.407Z,39.37
2018-01-10T14:25:27.355Z,39.28
2018-01-10T14:26:36.304Z,39.28
2018-01-10T14:27:45.529Z,39.37
2018-01-10T14:28:55.262Z,39.37
2018-01-10T14:30:03.943Z,39.28
2018-01-10T14:31:12.627Z,39.37
2018-01-10T14:32:22.093Z,39.37
2018-01-10T14:33:31.027Z,39.28
2018-01-10T14:34:39.987Z,39.37
2018-01-10T14:35:48.939Z,39.18
2018-01-10T14:36:58.414Z,39.28
2018-01-10T14:38:07.900Z,39.28
2018-01-10T14:39:16.862Z,39.18
2018-01-10T14:40:25.840Z,39.28
2018-01-10T14:41:35.638Z,39.28
2018-01-10T14:42:44.832Z,39.37
2018-01-10T14:43:53.781Z,39.28
2018-01-10T14:45:02.736Z,39.28
2018-01-10T14:46:11.699Z,39.28
2018-01-10T14:47:20.897Z,39.37
2018-01-10T14:48:30.098Z,39.28
2018-01-10T14:49:38.797Z,39.28
2018-01-10T14:50:47.509Z,39.37
2018-01-10T14:51:56.189Z,39.37